sensor_id;sensor_type;location;lat;lon;timestamp;temperature;humidity
53748;DHT22;39655;53.210;5.768;2023-03-14T00:01:47;10.00;82.90
53748;DHT22;39655;53.210;5.768;2023-03-14T00:04:14;10.00;82.90
53748;DHT22;39655;53.210;5.768;2023-03-14T00:06:40;9.90;83.00
53748;DHT22;39655;53.210;5.768;2023-03-14T00:09:06;9.90;83.00
53748;DHT22;39655;53.210;5.768;2023-03-14T00:11:31;9.90;83.20
53748;DHT22;39655;53.210;5.768;2023-03-14T00:13:57;9.80;83.40
53748;DHT22;39655;53.210;5.768;2023-03-14T00:16:23;9.80;83.70
53748;DHT22;39655;53.210;5.768;2023-03-14T00:18:48;9.80;83.70
53748;DHT22;39655;53.210;5.768;2023-03-14T00:21:14;9.90;83.90
53748;DHT22;39655;53.210;5.768;2023-03-14T00:23:41;9.80;84.10
53748;DHT22;39655;53.210;5.768;2023-03-14T00:26:10;9.90;84.40
53748;DHT22;39655;53.210;5.768;2023-03-14T00:28:36;9.80;84.40
53748;DHT22;39655;53.210;5.768;2023-03-14T00:31:03;9.80;84.50
53748;DHT22;39655;53.210;5.768;2023-03-14T00:33:29;9.80;84.50
53748;DHT22;39655;53.210;5.768;2023-03-14T00:36:00;9.70;84.70
53748;DHT22;39655;53.210;5.768;2023-03-14T00:38:27;9.60;84.90
53748;DHT22;39655;53.210;5.768;2023-03-14T00:40:53;9.60;85.10
53748;DHT22;39655;53.210;5.768;2023-03-14T00:43:20;9.60;85.20
53748;DHT22;39655;53.210;5.768;2023-03-14T00:45:50;9.60;85.40
53748;DHT22;39655;53.210;5.768;2023-03-14T00:48:19;9.50;85.30
53748;DHT22;39655;53.210;5.768;2023-03-14T00:50:45;9.50;85.50
53748;DHT22;39655;53.210;5.768;2023-03-14T00:53:11;9.40;85.50
53748;DHT22;39655;53.210;5.768;2023-03-14T00:55:38;9.40;85.70
53748;DHT22;39655;53.210;5.768;2023-03-14T00:58:05;9.40;85.80
53748;DHT22;39655;53.210;5.768;2023-03-14T01:00:31;9.40;86.00
53748;DHT22;39655;53.210;5.768;2023-03-14T01:02:57;9.40;86.00
53748;DHT22;39655;53.210;5.768;2023-03-14T01:05:24;9.50;86.20
53748;DHT22;39655;53.210;5.768;2023-03-14T01:07:50;9.50;86.30
53748;DHT22;39655;53.210;5.768;2023-03-14T01:10:16;9.60;86.20
53748;DHT22;39655;53.210;5.768;2023-03-14T01:12:42;9.50;86.30
53748;DHT22;39655;53.210;5.768;2023-03-14T01:15:08;9.60;86.40
53748;DHT22;39655;53.210;5.768;2023-03-14T01:17:34;9.70;86.40
53748;DHT22;39655;53.210;5.768;2023-03-14T01:20:00;9.70;86.40
53748;DHT22;39655;53.210;5.768;2023-03-14T01:22:26;9.70;86.60
53748;DHT22;39655;53.210;5.768;2023-03-14T01:24:52;9.70;86.70
53748;DHT22;39655;53.210;5.768;2023-03-14T01:27:17;9.70;86.80
53748;DHT22;39655;53.210;5.768;2023-03-14T01:29:43;9.70;86.90
53748;DHT22;39655;53.210;5.768;2023-03-14T01:32:08;9.70;87.10
53748;DHT22;39655;53.210;5.768;2023-03-14T01:34:34;9.70;87.30
53748;DHT22;39655;53.210;5.768;2023-03-14T01:37:00;9.70;87.40
53748;DHT22;39655;53.210;5.768;2023-03-14T01:39:26;9.70;87.40
53748;DHT22;39655;53.210;5.768;2023-03-14T01:41:51;9.70;87.40
53748;DHT22;39655;53.210;5.768;2023-03-14T01:44:17;9.70;87.60
53748;DHT22;39655;53.210;5.768;2023-03-14T01:46:46;9.70;87.50
53748;DHT22;39655;53.210;5.768;2023-03-14T01:52:05;9.60;87.90
53748;DHT22;39655;53.210;5.768;2023-03-14T01:59:37;9.50;88.20
53748;DHT22;39655;53.210;5.768;2023-03-14T02:02:06;9.50;88.30
53748;DHT22;39655;53.210;5.768;2023-03-14T02:04:35;9.50;88.40
53748;DHT22;39655;53.210;5.768;2023-03-14T02:07:14;9.50;88.40
53748;DHT22;39655;53.210;5.768;2023-03-14T02:09:41;9.40;88.70
53748;DHT22;39655;53.210;5.768;2023-03-14T02:12:13;9.50;88.60
53748;DHT22;39655;53.210;5.768;2023-03-14T02:14:40;9.50;88.90
53748;DHT22;39655;53.210;5.768;2023-03-14T02:17:08;9.40;88.80
53748;DHT22;39655;53.210;5.768;2023-03-14T02:22:40;9.40;89.20
53748;DHT22;39655;53.210;5.768;2023-03-14T02:27:48;9.40;89.50
53748;DHT22;39655;53.210;5.768;2023-03-14T02:30:17;9.30;89.90
53748;DHT22;39655;53.210;5.768;2023-03-14T02:32:46;9.20;90.10
53748;DHT22;39655;53.210;5.768;2023-03-14T02:35:15;9.30;90.10
53748;DHT22;39655;53.210;5.768;2023-03-14T02:40:30;9.30;90.30
53748;DHT22;39655;53.210;5.768;2023-03-14T02:42:56;9.30;90.40
53748;DHT22;39655;53.210;5.768;2023-03-14T02:47:57;9.40;90.50
53748;DHT22;39655;53.210;5.768;2023-03-14T02:50:26;9.30;90.80
53748;DHT22;39655;53.210;5.768;2023-03-14T02:52:54;9.30;91.80
53748;DHT22;39655;53.210;5.768;2023-03-14T02:55:23;9.10;91.70
53748;DHT22;39655;53.210;5.768;2023-03-14T02:57:50;9.00;92.10
53748;DHT22;39655;53.210;5.768;2023-03-14T03:00:16;9.00;92.60
53748;DHT22;39655;53.210;5.768;2023-03-14T03:02:42;8.90;92.90
53748;DHT22;39655;53.210;5.768;2023-03-14T03:05:07;9.00;93.20
53748;DHT22;39655;53.210;5.768;2023-03-14T03:07:33;9.00;93.20
53748;DHT22;39655;53.210;5.768;2023-03-14T03:09:59;8.90;93.20
53748;DHT22;39655;53.210;5.768;2023-03-14T03:12:24;8.90;93.50
53748;DHT22;39655;53.210;5.768;2023-03-14T03:14:50;8.80;93.50
53748;DHT22;39655;53.210;5.768;2023-03-14T03:17:16;8.90;94.20
53748;DHT22;39655;53.210;5.768;2023-03-14T03:19:42;8.80;93.80
53748;DHT22;39655;53.210;5.768;2023-03-14T03:22:07;8.80;94.10
53748;DHT22;39655;53.210;5.768;2023-03-14T03:24:33;8.80;94.00
53748;DHT22;39655;53.210;5.768;2023-03-14T03:26:59;8.80;94.00
53748;DHT22;39655;53.210;5.768;2023-03-14T03:29:25;8.80;94.00
53748;DHT22;39655;53.210;5.768;2023-03-14T03:31:51;8.80;93.90
53748;DHT22;39655;53.210;5.768;2023-03-14T03:34:16;8.90;94.00
53748;DHT22;39655;53.210;5.768;2023-03-14T03:36:42;8.80;93.70
53748;DHT22;39655;53.210;5.768;2023-03-14T03:39:08;8.80;93.70
53748;DHT22;39655;53.210;5.768;2023-03-14T03:41:33;8.80;93.80
53748;DHT22;39655;53.210;5.768;2023-03-14T03:43:59;8.80;93.90
53748;DHT22;39655;53.210;5.768;2023-03-14T03:46:25;8.90;93.60
53748;DHT22;39655;53.210;5.768;2023-03-14T03:48:58;8.90;93.60
53748;DHT22;39655;53.210;5.768;2023-03-14T03:51:25;8.90;93.50
53748;DHT22;39655;53.210;5.768;2023-03-14T03:53:50;8.90;93.40
53748;DHT22;39655;53.210;5.768;2023-03-14T03:56:16;8.90;93.10
53748;DHT22;39655;53.210;5.768;2023-03-14T03:58:42;8.90;93.10
53748;DHT22;39655;53.210;5.768;2023-03-14T04:01:09;8.90;92.90
53748;DHT22;39655;53.210;5.768;2023-03-14T04:03:35;9.00;92.80
53748;DHT22;39655;53.210;5.768;2023-03-14T04:06:03;9.10;92.40
53748;DHT22;39655;53.210;5.768;2023-03-14T04:08:29;9.00;92.40
53748;DHT22;39655;53.210;5.768;2023-03-14T04:10:59;9.00;92.40
53748;DHT22;39655;53.210;5.768;2023-03-14T04:13:26;9.00;92.30
53748;DHT22;39655;53.210;5.768;2023-03-14T04:15:53;9.00;92.50
53748;DHT22;39655;53.210;5.768;2023-03-14T04:18:19;9.10;92.50
53748;DHT22;39655;53.210;5.768;2023-03-14T04:20:45;9.00;92.60
53748;DHT22;39655;53.210;5.768;2023-03-14T04:23:11;8.90;93.00
53748;DHT22;39655;53.210;5.768;2023-03-14T04:25:36;8.90;93.40
53748;DHT22;39655;53.210;5.768;2023-03-14T04:28:02;8.80;93.90
53748;DHT22;39655;53.210;5.768;2023-03-14T04:30:29;8.70;94.30
53748;DHT22;39655;53.210;5.768;2023-03-14T04:32:55;8.70;94.50
53748;DHT22;39655;53.210;5.768;2023-03-14T04:35:21;8.60;94.90
53748;DHT22;39655;53.210;5.768;2023-03-14T04:37:46;8.50;95.00
53748;DHT22;39655;53.210;5.768;2023-03-14T04:40:15;8.60;95.40
53748;DHT22;39655;53.210;5.768;2023-03-14T04:42:41;8.60;95.80
53748;DHT22;39655;53.210;5.768;2023-03-14T04:45:07;8.60;95.80
53748;DHT22;39655;53.210;5.768;2023-03-14T04:47:33;8.50;96.00
53748;DHT22;39655;53.210;5.768;2023-03-14T04:49:59;8.60;96.20
53748;DHT22;39655;53.210;5.768;2023-03-14T04:52:25;8.60;96.30
53748;DHT22;39655;53.210;5.768;2023-03-14T04:54:51;8.60;96.40
53748;DHT22;39655;53.210;5.768;2023-03-14T04:57:16;8.70;96.40
53748;DHT22;39655;53.210;5.768;2023-03-14T04:59:42;8.60;96.30
53748;DHT22;39655;53.210;5.768;2023-03-14T05:02:08;8.50;96.60
53748;DHT22;39655;53.210;5.768;2023-03-14T05:04:33;8.60;96.70
53748;DHT22;39655;53.210;5.768;2023-03-14T05:07:00;8.50;96.80
53748;DHT22;39655;53.210;5.768;2023-03-14T05:09:26;8.60;96.90
53748;DHT22;39655;53.210;5.768;2023-03-14T05:11:51;8.60;97.00
53748;DHT22;39655;53.210;5.768;2023-03-14T05:14:17;8.60;97.10
53748;DHT22;39655;53.210;5.768;2023-03-14T05:16:43;8.50;96.90
53748;DHT22;39655;53.210;5.768;2023-03-14T05:19:10;8.50;97.20
53748;DHT22;39655;53.210;5.768;2023-03-14T05:21:36;8.50;97.20
53748;DHT22;39655;53.210;5.768;2023-03-14T05:24:02;8.60;97.30
53748;DHT22;39655;53.210;5.768;2023-03-14T05:26:28;8.60;97.20
53748;DHT22;39655;53.210;5.768;2023-03-14T05:28:54;8.60;97.10
53748;DHT22;39655;53.210;5.768;2023-03-14T05:31:21;8.50;97.30
53748;DHT22;39655;53.210;5.768;2023-03-14T05:33:46;8.50;97.10
53748;DHT22;39655;53.210;5.768;2023-03-14T05:36:12;8.40;97.10
53748;DHT22;39655;53.210;5.768;2023-03-14T05:38:38;8.50;97.10
53748;DHT22;39655;53.210;5.768;2023-03-14T05:41:04;8.40;97.20
53748;DHT22;39655;53.210;5.768;2023-03-14T05:43:30;8.30;97.00
53748;DHT22;39655;53.210;5.768;2023-03-14T05:45:56;8.10;96.80
53748;DHT22;39655;53.210;5.768;2023-03-14T05:48:21;7.80;96.80
53748;DHT22;39655;53.210;5.768;2023-03-14T05:50:47;7.60;96.90
53748;DHT22;39655;53.210;5.768;2023-03-14T05:53:13;7.50;97.10
53748;DHT22;39655;53.210;5.768;2023-03-14T05:55:39;7.40;97.20
53748;DHT22;39655;53.210;5.768;2023-03-14T05:58:05;7.20;97.00
53748;DHT22;39655;53.210;5.768;2023-03-14T06:00:31;6.90;96.80
53748;DHT22;39655;53.210;5.768;2023-03-14T06:02:57;6.70;96.70
53748;DHT22;39655;53.210;5.768;2023-03-14T06:05:23;6.40;96.40
53748;DHT22;39655;53.210;5.768;2023-03-14T06:07:49;6.30;96.60
53748;DHT22;39655;53.210;5.768;2023-03-14T06:10:15;6.10;96.50
53748;DHT22;39655;53.210;5.768;2023-03-14T06:12:40;6.00;96.30
53748;DHT22;39655;53.210;5.768;2023-03-14T06:15:06;5.80;96.40
53748;DHT22;39655;53.210;5.768;2023-03-14T06:17:32;5.60;96.30
53748;DHT22;39655;53.210;5.768;2023-03-14T06:19:58;5.50;96.60
53748;DHT22;39655;53.210;5.768;2023-03-14T06:22:23;5.40;96.60
53748;DHT22;39655;53.210;5.768;2023-03-14T06:24:49;5.30;96.60
53748;DHT22;39655;53.210;5.768;2023-03-14T06:27:15;5.10;96.50
53748;DHT22;39655;53.210;5.768;2023-03-14T06:29:41;5.00;96.40
53748;DHT22;39655;53.210;5.768;2023-03-14T06:32:06;5.00;96.40
53748;DHT22;39655;53.210;5.768;2023-03-14T06:34:32;4.90;96.60
53748;DHT22;39655;53.210;5.768;2023-03-14T06:36:58;4.80;96.60
53748;DHT22;39655;53.210;5.768;2023-03-14T06:39:23;4.70;96.60
53748;DHT22;39655;53.210;5.768;2023-03-14T06:41:49;4.80;97.00
53748;DHT22;39655;53.210;5.768;2023-03-14T06:44:15;4.70;96.80
53748;DHT22;39655;53.210;5.768;2023-03-14T06:46:40;4.80;97.10
53748;DHT22;39655;53.210;5.768;2023-03-14T06:49:06;4.70;96.90
53748;DHT22;39655;53.210;5.768;2023-03-14T06:51:32;4.80;97.10
53748;DHT22;39655;53.210;5.768;2023-03-14T06:53:57;4.80;97.00
53748;DHT22;39655;53.210;5.768;2023-03-14T06:56:23;4.80;97.10
53748;DHT22;39655;53.210;5.768;2023-03-14T06:58:49;4.80;96.60
53748;DHT22;39655;53.210;5.768;2023-03-14T07:01:22;4.70;96.50
53748;DHT22;39655;53.210;5.768;2023-03-14T07:03:48;4.70;96.10
53748;DHT22;39655;53.210;5.768;2023-03-14T07:06:14;4.70;96.30
53748;DHT22;39655;53.210;5.768;2023-03-14T07:08:40;4.60;96.20
53748;DHT22;39655;53.210;5.768;2023-03-14T07:11:07;4.60;96.40
53748;DHT22;39655;53.210;5.768;2023-03-14T07:13:33;4.60;96.40
53748;DHT22;39655;53.210;5.768;2023-03-14T07:15:58;4.60;96.10
53748;DHT22;39655;53.210;5.768;2023-03-14T07:18:24;4.60;96.20
53748;DHT22;39655;53.210;5.768;2023-03-14T07:20:50;4.50;96.20
53748;DHT22;39655;53.210;5.768;2023-03-14T07:23:15;4.60;96.50
53748;DHT22;39655;53.210;5.768;2023-03-14T07:25:41;4.70;96.60
53748;DHT22;39655;53.210;5.768;2023-03-14T07:28:06;4.60;96.50
53748;DHT22;39655;53.210;5.768;2023-03-14T07:30:32;4.60;96.60
53748;DHT22;39655;53.210;5.768;2023-03-14T07:32:58;4.70;96.70
53748;DHT22;39655;53.210;5.768;2023-03-14T07:35:23;4.70;95.60
53748;DHT22;39655;53.210;5.768;2023-03-14T07:37:49;4.60;95.50
53748;DHT22;39655;53.210;5.768;2023-03-14T07:40:15;4.50;95.40
53748;DHT22;39655;53.210;5.768;2023-03-14T07:42:42;4.50;95.70
53748;DHT22;39655;53.210;5.768;2023-03-14T07:45:09;4.60;95.70
53748;DHT22;39655;53.210;5.768;2023-03-14T07:47:35;4.60;95.60
53748;DHT22;39655;53.210;5.768;2023-03-14T07:50:01;4.70;95.50
53748;DHT22;39655;53.210;5.768;2023-03-14T07:52:26;4.80;95.10
53748;DHT22;39655;53.210;5.768;2023-03-14T07:54:53;4.80;95.10
53748;DHT22;39655;53.210;5.768;2023-03-14T07:57:19;4.80;95.40
53748;DHT22;39655;53.210;5.768;2023-03-14T07:59:44;4.90;95.30
53748;DHT22;39655;53.210;5.768;2023-03-14T08:02:11;4.90;94.80
53748;DHT22;39655;53.210;5.768;2023-03-14T08:04:38;5.00;94.60
53748;DHT22;39655;53.210;5.768;2023-03-14T08:07:04;5.10;93.90
53748;DHT22;39655;53.210;5.768;2023-03-14T08:09:30;5.10;93.20
53748;DHT22;39655;53.210;5.768;2023-03-14T08:11:55;5.10;93.10
53748;DHT22;39655;53.210;5.768;2023-03-14T08:14:21;5.10;93.60
53748;DHT22;39655;53.210;5.768;2023-03-14T08:16:49;5.10;93.70
53748;DHT22;39655;53.210;5.768;2023-03-14T08:19:15;5.20;93.50
53748;DHT22;39655;53.210;5.768;2023-03-14T08:21:41;5.30;93.50
53748;DHT22;39655;53.210;5.768;2023-03-14T08:24:07;5.50;93.30
53748;DHT22;39655;53.210;5.768;2023-03-14T08:26:32;5.50;93.30
53748;DHT22;39655;53.210;5.768;2023-03-14T08:28:58;5.60;92.70
53748;DHT22;39655;53.210;5.768;2023-03-14T08:31:24;5.70;91.80
53748;DHT22;39655;53.210;5.768;2023-03-14T08:33:50;5.80;91.40
53748;DHT22;39655;53.210;5.768;2023-03-14T08:36:17;5.90;90.50
53748;DHT22;39655;53.210;5.768;2023-03-14T08:38:43;6.00;90.10
53748;DHT22;39655;53.210;5.768;2023-03-14T08:41:09;6.10;89.50
53748;DHT22;39655;53.210;5.768;2023-03-14T08:43:35;6.10;89.40
53748;DHT22;39655;53.210;5.768;2023-03-14T08:46:02;6.10;89.00
53748;DHT22;39655;53.210;5.768;2023-03-14T08:48:28;6.10;89.40
53748;DHT22;39655;53.210;5.768;2023-03-14T08:51:12;6.10;89.50
53748;DHT22;39655;53.210;5.768;2023-03-14T08:53:39;6.20;89.70
53748;DHT22;39655;53.210;5.768;2023-03-14T08:56:06;6.10;88.30
53748;DHT22;39655;53.210;5.768;2023-03-14T08:58:32;6.00;86.60
53748;DHT22;39655;53.210;5.768;2023-03-14T09:00:58;6.00;84.40
53748;DHT22;39655;53.210;5.768;2023-03-14T09:03:25;5.90;83.90
53748;DHT22;39655;53.210;5.768;2023-03-14T09:05:51;5.80;84.60
53748;DHT22;39655;53.210;5.768;2023-03-14T09:08:17;5.90;85.00
53748;DHT22;39655;53.210;5.768;2023-03-14T09:10:43;5.90;84.40
53748;DHT22;39655;53.210;5.768;2023-03-14T09:13:08;6.00;84.10
53748;DHT22;39655;53.210;5.768;2023-03-14T09:15:37;6.20;83.20
53748;DHT22;39655;53.210;5.768;2023-03-14T09:18:03;6.20;82.30
53748;DHT22;39655;53.210;5.768;2023-03-14T09:20:28;6.20;79.70
53748;DHT22;39655;53.210;5.768;2023-03-14T09:22:54;6.20;79.30
53748;DHT22;39655;53.210;5.768;2023-03-14T09:25:20;6.30;79.40
53748;DHT22;39655;53.210;5.768;2023-03-14T09:27:45;6.30;78.30
53748;DHT22;39655;53.210;5.768;2023-03-14T09:30:11;6.40;78.00
53748;DHT22;39655;53.210;5.768;2023-03-14T09:32:37;6.40;75.00
53748;DHT22;39655;53.210;5.768;2023-03-14T09:35:03;6.40;74.90
53748;DHT22;39655;53.210;5.768;2023-03-14T09:37:29;6.50;75.10
53748;DHT22;39655;53.210;5.768;2023-03-14T09:39:54;6.50;75.20
53748;DHT22;39655;53.210;5.768;2023-03-14T09:42:23;6.50;74.60
53748;DHT22;39655;53.210;5.768;2023-03-14T09:47:21;6.50;74.60
53748;DHT22;39655;53.210;5.768;2023-03-14T09:49:48;6.50;73.90
53748;DHT22;39655;53.210;5.768;2023-03-14T09:52:32;6.50;73.20
53748;DHT22;39655;53.210;5.768;2023-03-14T09:55:25;6.40;70.10
53748;DHT22;39655;53.210;5.768;2023-03-14T09:57:55;6.40;71.60
53748;DHT22;39655;53.210;5.768;2023-03-14T10:00:27;6.50;71.50
53748;DHT22;39655;53.210;5.768;2023-03-14T10:03:31;6.50;69.60
53748;DHT22;39655;53.210;5.768;2023-03-14T10:05:57;6.50;69.60
53748;DHT22;39655;53.210;5.768;2023-03-14T10:08:23;6.40;70.00
53748;DHT22;39655;53.210;5.768;2023-03-14T10:10:49;6.60;67.30
53748;DHT22;39655;53.210;5.768;2023-03-14T10:13:21;6.70;68.70
53748;DHT22;39655;53.210;5.768;2023-03-14T10:16:00;7.00;67.00
53748;DHT22;39655;53.210;5.768;2023-03-14T10:18:29;7.10;67.60
53748;DHT22;39655;53.210;5.768;2023-03-14T10:21:17;7.00;63.70
53748;DHT22;39655;53.210;5.768;2023-03-14T10:23:45;6.80;62.00
53748;DHT22;39655;53.210;5.768;2023-03-14T10:26:16;6.70;63.50
53748;DHT22;39655;53.210;5.768;2023-03-14T10:28:47;6.80;61.30
53748;DHT22;39655;53.210;5.768;2023-03-14T10:31:14;6.90;62.90
53748;DHT22;39655;53.210;5.768;2023-03-14T10:33:40;7.00;61.50
53748;DHT22;39655;53.210;5.768;2023-03-14T10:36:22;7.00;63.60
53748;DHT22;39655;53.210;5.768;2023-03-14T10:38:49;7.10;65.20
53748;DHT22;39655;53.210;5.768;2023-03-14T10:41:23;7.00;63.00
53748;DHT22;39655;53.210;5.768;2023-03-14T10:43:52;6.90;61.90
53748;DHT22;39655;53.210;5.768;2023-03-14T10:46:19;6.70;64.60
53748;DHT22;39655;53.210;5.768;2023-03-14T10:48:45;6.60;62.00
53748;DHT22;39655;53.210;5.768;2023-03-14T10:56:37;6.90;57.80
53748;DHT22;39655;53.210;5.768;2023-03-14T10:59:06;6.90;57.00
53748;DHT22;39655;53.210;5.768;2023-03-14T11:12:29;7.10;56.70
53748;DHT22;39655;53.210;5.768;2023-03-14T11:15:02;7.20;58.00
53748;DHT22;39655;53.210;5.768;2023-03-14T11:17:51;7.20;57.80
53748;DHT22;39655;53.210;5.768;2023-03-14T11:23:21;7.40;58.60
53748;DHT22;39655;53.210;5.768;2023-03-14T11:25:56;7.60;58.50
53748;DHT22;39655;53.210;5.768;2023-03-14T11:28:37;7.80;59.70
53748;DHT22;39655;53.210;5.768;2023-03-14T11:31:05;7.90;59.70
53748;DHT22;39655;53.210;5.768;2023-03-14T11:33:48;8.10;59.00
53748;DHT22;39655;53.210;5.768;2023-03-14T11:36:27;8.20;59.00
53748;DHT22;39655;53.210;5.768;2023-03-14T11:38:58;8.20;59.80
53748;DHT22;39655;53.210;5.768;2023-03-14T11:41:29;8.10;60.60
53748;DHT22;39655;53.210;5.768;2023-03-14T11:43:57;7.90;61.00
53748;DHT22;39655;53.210;5.768;2023-03-14T11:46:36;7.80;61.50
53748;DHT22;39655;53.210;5.768;2023-03-14T11:49:30;7.80;60.70
53748;DHT22;39655;53.210;5.768;2023-03-14T11:52:05;8.00;60.80
53748;DHT22;39655;53.210;5.768;2023-03-14T11:54:58;8.30;61.10
53748;DHT22;39655;53.210;5.768;2023-03-14T11:57:25;8.20;61.50
53748;DHT22;39655;53.210;5.768;2023-03-14T12:10:53;8.10;55.70
53748;DHT22;39655;53.210;5.768;2023-03-14T12:13:20;8.10;56.50
53748;DHT22;39655;53.210;5.768;2023-03-14T12:15:59;8.00;57.90
53748;DHT22;39655;53.210;5.768;2023-03-14T12:18:36;8.20;55.30
53748;DHT22;39655;53.210;5.768;2023-03-14T12:21:09;8.40;54.20
53748;DHT22;39655;53.210;5.768;2023-03-14T12:23:49;8.60;54.30
53748;DHT22;39655;53.210;5.768;2023-03-14T12:31:42;8.80;50.70
53748;DHT22;39655;53.210;5.768;2023-03-14T12:44:41;8.90;52.30
53748;DHT22;39655;53.210;5.768;2023-03-14T12:49:42;9.30;52.40
53748;DHT22;39655;53.210;5.768;2023-03-14T12:52:15;9.20;50.80
53748;DHT22;39655;53.210;5.768;2023-03-14T13:00:21;9.10;48.50
53748;DHT22;39655;53.210;5.768;2023-03-14T13:02:48;9.40;46.70
53748;DHT22;39655;53.210;5.768;2023-03-14T13:05:25;10.00;47.00
53748;DHT22;39655;53.210;5.768;2023-03-14T13:10:27;9.10;47.90
53748;DHT22;39655;53.210;5.768;2023-03-14T13:13:21;8.80;48.00
53748;DHT22;39655;53.210;5.768;2023-03-14T13:15:48;8.80;50.10
53748;DHT22;39655;53.210;5.768;2023-03-14T13:21:12;9.60;50.40
53748;DHT22;39655;53.210;5.768;2023-03-14T13:23:39;9.60;46.70
53748;DHT22;39655;53.210;5.768;2023-03-14T13:26:11;9.60;48.50
53748;DHT22;39655;53.210;5.768;2023-03-14T13:28:38;9.90;46.60
53748;DHT22;39655;53.210;5.768;2023-03-14T13:31:04;9.50;50.00
53748;DHT22;39655;53.210;5.768;2023-03-14T13:33:33;9.70;48.30
53748;DHT22;39655;53.210;5.768;2023-03-14T13:36:04;9.90;45.70
53748;DHT22;39655;53.210;5.768;2023-03-14T13:38:33;9.40;47.20
53748;DHT22;39655;53.210;5.768;2023-03-14T13:41:03;9.00;50.50
53748;DHT22;39655;53.210;5.768;2023-03-14T13:43:43;9.50;48.10
53748;DHT22;39655;53.210;5.768;2023-03-14T13:48:45;9.80;46.20
53748;DHT22;39655;53.210;5.768;2023-03-14T13:51:13;9.80;46.90
53748;DHT22;39655;53.210;5.768;2023-03-14T13:53:53;9.90;45.70
53748;DHT22;39655;53.210;5.768;2023-03-14T13:56:20;10.20;47.10
53748;DHT22;39655;53.210;5.768;2023-03-14T13:58:46;10.50;43.90
53748;DHT22;39655;53.210;5.768;2023-03-14T14:01:15;10.30;44.70
53748;DHT22;39655;53.210;5.768;2023-03-14T14:03:44;10.20;46.20
53748;DHT22;39655;53.210;5.768;2023-03-14T14:06:22;9.80;47.80
53748;DHT22;39655;53.210;5.768;2023-03-14T14:08:49;10.10;48.80
53748;DHT22;39655;53.210;5.768;2023-03-14T14:11:43;10.50;45.40
53748;DHT22;39655;53.210;5.768;2023-03-14T14:14:36;10.50;45.80
53748;DHT22;39655;53.210;5.768;2023-03-14T14:17:08;10.20;46.80
53748;DHT22;39655;53.210;5.768;2023-03-14T14:19:36;10.20;46.20
53748;DHT22;39655;53.210;5.768;2023-03-14T14:22:03;9.50;48.10
53748;DHT22;39655;53.210;5.768;2023-03-14T14:24:31;8.60;51.20
53748;DHT22;39655;53.210;5.768;2023-03-14T14:29:33;8.50;52.70
53748;DHT22;39655;53.210;5.768;2023-03-14T14:32:01;8.90;51.20
53748;DHT22;39655;53.210;5.768;2023-03-14T14:34:27;9.20;51.70
53748;DHT22;39655;53.210;5.768;2023-03-14T14:36:53;9.40;50.80
53748;DHT22;39655;53.210;5.768;2023-03-14T14:39:24;9.80;52.60
53748;DHT22;39655;53.210;5.768;2023-03-14T14:41:52;10.10;49.00
53748;DHT22;39655;53.210;5.768;2023-03-14T14:44:28;9.70;49.60
53748;DHT22;39655;53.210;5.768;2023-03-14T14:46:55;9.80;49.60
53748;DHT22;39655;53.210;5.768;2023-03-14T14:49:28;10.10;47.10
53748;DHT22;39655;53.210;5.768;2023-03-14T14:52:05;10.10;47.00
53748;DHT22;39655;53.210;5.768;2023-03-14T14:54:35;10.20;47.30
53748;DHT22;39655;53.210;5.768;2023-03-14T14:57:04;10.20;47.70
53748;DHT22;39655;53.210;5.768;2023-03-14T14:59:30;10.40;47.40
53748;DHT22;39655;53.210;5.768;2023-03-14T15:01:58;10.20;46.20
53748;DHT22;39655;53.210;5.768;2023-03-14T15:04:25;10.30;45.90
53748;DHT22;39655;53.210;5.768;2023-03-14T15:06:52;10.40;47.40
53748;DHT22;39655;53.210;5.768;2023-03-14T15:09:19;10.20;45.90
53748;DHT22;39655;53.210;5.768;2023-03-14T15:11:45;9.40;46.80
53748;DHT22;39655;53.210;5.768;2023-03-14T15:14:11;8.60;50.10
53748;DHT22;39655;53.210;5.768;2023-03-14T15:16:38;8.20;52.20
53748;DHT22;39655;53.210;5.768;2023-03-14T15:19:11;7.90;57.20
53748;DHT22;39655;53.210;5.768;2023-03-14T15:21:37;7.50;68.10
53748;DHT22;39655;53.210;5.768;2023-03-14T15:24:04;6.80;71.70
53748;DHT22;39655;53.210;5.768;2023-03-14T15:26:30;6.70;70.10
53748;DHT22;39655;53.210;5.768;2023-03-14T15:28:56;7.00;70.30
53748;DHT22;39655;53.210;5.768;2023-03-14T15:31:22;7.00;69.50
53748;DHT22;39655;53.210;5.768;2023-03-14T15:33:48;7.00;68.30
53748;DHT22;39655;53.210;5.768;2023-03-14T15:36:28;7.20;67.60
53748;DHT22;39655;53.210;5.768;2023-03-14T15:38:55;7.40;66.20
53748;DHT22;39655;53.210;5.768;2023-03-14T15:41:21;7.80;62.30
53748;DHT22;39655;53.210;5.768;2023-03-14T15:43:48;8.10;58.60
53748;DHT22;39655;53.210;5.768;2023-03-14T15:46:14;8.50;56.60
53748;DHT22;39655;53.210;5.768;2023-03-14T15:48:40;8.80;57.10
53748;DHT22;39655;53.210;5.768;2023-03-14T15:51:06;9.00;52.10
53748;DHT22;39655;53.210;5.768;2023-03-14T15:53:32;8.80;50.60
53748;DHT22;39655;53.210;5.768;2023-03-14T15:55:57;8.80;51.00
53748;DHT22;39655;53.210;5.768;2023-03-14T15:58:23;8.90;49.50
53748;DHT22;39655;53.210;5.768;2023-03-14T16:00:49;8.80;49.30
53748;DHT22;39655;53.210;5.768;2023-03-14T16:03:15;8.80;49.60
53748;DHT22;39655;53.210;5.768;2023-03-14T16:05:41;8.70;51.50
53748;DHT22;39655;53.210;5.768;2023-03-14T16:08:07;9.00;49.90
53748;DHT22;39655;53.210;5.768;2023-03-14T16:10:33;9.20;49.90
53748;DHT22;39655;53.210;5.768;2023-03-14T16:12:59;9.40;50.20
53748;DHT22;39655;53.210;5.768;2023-03-14T16:15:25;9.40;49.00
53748;DHT22;39655;53.210;5.768;2023-03-14T16:17:54;8.70;50.40
53748;DHT22;39655;53.210;5.768;2023-03-14T16:20:21;8.30;52.80
53748;DHT22;39655;53.210;5.768;2023-03-14T16:22:47;8.30;54.40
53748;DHT22;39655;53.210;5.768;2023-03-14T16:25:13;8.50;56.00
53748;DHT22;39655;53.210;5.768;2023-03-14T16:27:39;8.20;57.90
53748;DHT22;39655;53.210;5.768;2023-03-14T16:30:05;7.90;56.50
53748;DHT22;39655;53.210;5.768;2023-03-14T16:32:31;7.50;58.60
53748;DHT22;39655;53.210;5.768;2023-03-14T16:34:57;7.20;54.70
53748;DHT22;39655;53.210;5.768;2023-03-14T16:37:23;7.10;54.30
53748;DHT22;39655;53.210;5.768;2023-03-14T16:39:49;7.10;54.60
53748;DHT22;39655;53.210;5.768;2023-03-14T16:42:15;6.90;56.80
53748;DHT22;39655;53.210;5.768;2023-03-14T16:44:41;6.80;58.50
53748;DHT22;39655;53.210;5.768;2023-03-14T16:47:07;6.90;61.50
53748;DHT22;39655;53.210;5.768;2023-03-14T16:49:33;6.50;65.50
53748;DHT22;39655;53.210;5.768;2023-03-14T16:51:58;6.40;68.80
53748;DHT22;39655;53.210;5.768;2023-03-14T16:54:24;6.30;70.70
53748;DHT22;39655;53.210;5.768;2023-03-14T16:56:50;6.10;71.40
53748;DHT22;39655;53.210;5.768;2023-03-14T16:59:18;6.10;70.70
53748;DHT22;39655;53.210;5.768;2023-03-14T17:01:43;6.10;70.50
53748;DHT22;39655;53.210;5.768;2023-03-14T17:04:09;5.80;71.50
53748;DHT22;39655;53.210;5.768;2023-03-14T17:06:36;5.70;71.90
53748;DHT22;39655;53.210;5.768;2023-03-14T17:09:04;5.70;71.20
53748;DHT22;39655;53.210;5.768;2023-03-14T17:11:33;5.70;70.20
53748;DHT22;39655;53.210;5.768;2023-03-14T17:14:01;5.60;70.70
53748;DHT22;39655;53.210;5.768;2023-03-14T17:16:27;5.50;70.60